Time;durP1;ratioP1;P1;durP2;ratioP2;P2;SDS_P1;SDS_P2;PMS_P1;PMS_P2;Temp;Humidity;BMP_temperature;BMP_pressure;BME280_temperature;BME280_humidity;BME280_pressure;Samples;Min_cycle;Max_cycle;Signal;HPM_P1;HPM_P2
2021/11/03 00:01:17;;;;;;;35.50;16.40;;;;;;;11.60;68.92;99059.64;27240;1217;3026839;-65
2021/11/03 00:03:47;;;;;;;36.20;15.40;;;;;;;11.53;68.81;99061.44;27198;1217;3048210;-69
2021/11/03 00:06:18;;;;;;;37.30;17.50;;;;;;;11.30;69.22;99066.20;27189;1218;3026562;-70
2021/11/03 00:08:47;;;;;;;40.90;18.90;;;;;;;11.06;70.25;99075.73;27251;1217;3027003;-72
2021/11/03 00:11:16;;;;;;;36.90;18.30;;;;;;;10.88;70.75;99078.17;27234;1217;3025732;-70
2021/11/03 00:13:45;;;;;;;38.30;19.10;;;;;;;10.72;71.42;99083.09;27270;1217;3049920;-70
2021/11/03 00:16:14;;;;;;;32.10;14.40;;;;;;;10.68;71.64;99082.14;27274;1217;3025960;-66
2021/11/03 00:18:43;;;;;;;36.20;14.10;;;;;;;11.23;70.62;99079.64;27246;1218;3026392;-67
2021/11/03 00:21:12;;;;;;;31.80;16.10;;;;;;;11.61;69.03;99069.75;27242;1217;3051643;-68
2021/11/03 00:23:41;;;;;;;36.50;16.70;;;;;;;11.67;68.62;99071.63;27222;1217;3025876;-67
2021/11/03 00:26:10;;;;;;;29.90;15.60;;;;;;;11.53;68.90;99075.23;27218;1218;3048372;-76
2021/11/03 00:28:39;;;;;;;35.30;16.90;;;;;;;11.32;69.49;99079.71;27211;1218;3026423;-75
2021/11/03 00:31:08;;;;;;;38.00;18.70;;;;;;;11.12;70.28;99080.37;27181;1217;3067563;-67
2021/11/03 00:33:37;;;;;;;43.50;18.80;;;;;;;10.99;70.89;99082.13;27228;1218;3025823;-68
2021/11/03 00:36:06;;;;;;;38.40;19.30;;;;;;;10.87;71.41;99085.45;27187;1217;3026531;-73
2021/11/03 00:38:35;;;;;;;29.50;14.50;;;;;;;10.77;71.95;99089.95;27186;1218;3069556;-67
2021/11/03 00:41:05;;;;;;;32.90;14.60;;;;;;;11.21;71.43;99086.59;27207;1218;3027445;-68
2021/11/03 00:43:35;;;;;;;36.30;16.50;;;;;;;11.60;70.26;99085.60;27244;1217;3026517;-74
2021/11/03 00:46:04;;;;;;;34.10;17.20;;;;;;;11.63;69.81;99088.39;27287;1218;3029029;-73
2021/11/03 00:48:33;;;;;;;41.40;17.60;;;;;;;11.47;70.51;99093.42;27250;1218;3026869;-66
2021/11/03 00:51:03;;;;;;;37.90;19.00;;;;;;;11.27;70.97;99093.89;27247;1218;3051326;-68
2021/11/03 00:53:32;;;;;;;35.80;18.00;;;;;;;11.02;71.81;99099.81;27234;1218;3026279;-72
2021/11/03 00:56:01;;;;;;;40.50;17.50;;;;;;;10.84;72.18;99101.20;27254;1218;3050560;-67
2021/11/03 00:58:30;;;;;;;34.30;17.70;;;;;;;10.67;72.66;99097.11;27233;1217;3026393;-69
2021/11/03 01:00:59;;;;;;;36.50;14.90;;;;;;;10.59;73.31;99102.52;27203;1217;3026542;-63
2021/11/03 01:03:31;;;;;;;33.80;15.00;;;;;;;11.13;72.05;99112.73;27249;1216;3051073;-71
2021/11/03 01:06:01;;;;;;;37.60;17.30;;;;;;;11.59;70.47;99119.20;27195;1217;3025961;-64
2021/11/03 01:08:32;;;;;;;36.30;17.90;;;;;;;11.73;69.96;99120.50;27241;1217;3026414;-68
2021/11/03 01:11:01;;;;;;;45.40;20.00;;;;;;;11.57;70.17;99120.02;27209;1217;3049156;-73
2021/11/03 01:13:32;;;;;;;40.10;20.00;;;;;;;11.35;70.89;99125.42;27227;1217;3026072;-72
2021/11/03 01:16:01;;;;;;;45.00;20.40;;;;;;;11.16;71.16;99128.64;27227;1217;3026106;-69
2021/11/03 01:18:31;;;;;;;48.30;22.00;;;;;;;10.96;72.04;99133.53;27241;1218;3048176;-68
2021/11/03 01:21:01;;;;;;;51.60;23.20;;;;;;;10.80;72.77;99131.58;27206;1218;3027660;-65
2021/11/03 01:23:30;;;;;;;38.90;17.30;;;;;;;10.70;73.44;99133.70;27245;1218;3025969;-74
2021/11/03 01:25:59;;;;;;;55.10;21.70;;;;;;;11.17;72.54;99129.08;27186;1217;3026519;-68
2021/11/03 01:28:28;;;;;;;67.40;25.70;;;;;;;11.70;70.84;99129.15;27209;1217;3026564;-67
2021/11/03 01:30:57;;;;;;;80.10;32.70;;;;;;;11.71;70.13;99125.24;27231;1217;3051641;-62
2021/11/03 01:33:26;;;;;;;85.70;34.60;;;;;;;11.57;70.65;99122.81;27221;1217;3028064;-68
2021/11/03 01:35:56;;;;;;;89.90;37.20;;;;;;;11.45;71.19;99123.73;27210;1218;3053088;-76
2021/11/03 01:38:26;;;;;;;96.00;38.60;;;;;;;11.21;72.00;99123.20;27233;1218;3026330;-73
2021/11/03 01:40:55;;;;;;;122.20;41.40;;;;;;;11.01;72.85;99121.12;27275;1218;3025967;-71
2021/11/03 01:43:47;;;;;;;85.10;31.80;;;;;;;10.88;73.38;99118.81;27221;1217;3053443;-71
2021/11/03 01:46:42;;;;;;;90.60;32.70;;;;;;;11.45;72.01;99114.78;27229;1218;3051501;-67
2021/11/03 01:49:22;;;;;;;116.00;40.70;;;;;;;11.85;70.64;99111.79;27208;1217;3055583;-66
2021/11/03 01:52:06;;;;;;;114.90;43.30;;;;;;;11.82;70.58;99114.45;27217;1217;3049709;-75
2021/11/03 01:54:47;;;;;;;115.80;43.30;;;;;;;11.58;71.07;99119.45;27201;1217;3053149;-63
2021/11/03 01:57:25;;;;;;;122.50;45.10;;;;;;;11.38;71.73;99119.98;27215;1217;3050965;-62
2021/11/03 01:59:58;;;;;;;119.60;44.00;;;;;;;11.18;72.33;99122.02;27235;1218;3067443;-71
2021/11/03 02:02:28;;;;;;;130.70;46.70;;;;;;;11.03;72.74;99124.80;27227;1218;3025908;-66
2021/11/03 02:04:57;;;;;;;108.30;39.40;;;;;;;10.89;73.57;99128.38;27263;1217;3028044;-73
2021/11/03 02:07:30;;;;;;;112.20;40.00;;;;;;;11.36;72.58;99127.33;27204;1218;3068724;-71
2021/11/03 02:09:59;;;;;;;120.80;45.80;;;;;;;11.87;70.98;99131.65;27224;1218;3027995;-76
2021/11/03 02:12:29;;;;;;;132.00;49.00;;;;;;;11.95;70.48;99126.86;27259;1218;3050993;-71
2021/11/03 02:14:59;;;;;;;137.10;51.40;;;;;;;11.79;70.89;99127.61;27185;1217;3027145;-72
2021/11/03 02:17:29;;;;;;;139.30;53.60;;;;;;;11.56;71.32;99130.80;27239;1218;3026336;-70
2021/11/03 02:19:58;;;;;;;142.90;54.20;;;;;;;11.39;71.78;99133.73;27223;1217;3053060;-75
2021/11/03 02:22:48;;;;;;;151.50;55.20;;;;;;;11.20;72.55;99134.57;27202;1216;3026101;-64
2021/11/03 02:25:19;;;;;;;125.10;46.10;;;;;;;11.06;73.18;99134.77;27240;1219;3049138;-67
2021/11/03 02:27:49;;;;;;;120.00;43.30;;;;;;;11.64;71.82;99127.42;27227;1218;3026017;-73
2021/11/03 02:30:22;;;;;;;132.00;49.60;;;;;;;12.13;70.20;99122.78;27255;1218;3026250;-69
2021/11/03 02:33:04;;;;;;;126.60;49.80;;;;;;;12.15;69.49;99124.73;27207;1218;3028297;-70
2021/11/03 02:35:37;;;;;;;126.30;50.50;;;;;;;12.00;69.73;99132.09;27187;1218;3049316;-72
2021/11/03 02:38:06;;;;;;;128.80;49.70;;;;;;;11.71;70.53;99134.52;27288;1218;3026141;-69
2021/11/03 02:40:39;;;;;;;136.70;50.00;;;;;;;11.47;71.45;99144.05;27226;1217;3026507;-69
2021/11/03 02:43:12;;;;;;;142.30;50.80;;;;;;;11.25;72.02;99147.83;27183;1217;3067962;-70
2021/11/03 02:45:53;;;;;;;148.40;52.20;;;;;;;11.03;73.21;99146.73;27233;1217;3026444;-70
2021/11/03 02:48:24;;;;;;;106.00;39.30;;;;;;;10.88;74.09;99144.40;27259;1218;3052357;-72
2021/11/03 02:50:56;;;;;;;112.00;37.80;;;;;;;11.51;72.45;99136.60;27263;1217;3028887;-67
2021/11/03 02:53:25;;;;;;;120.10;43.30;;;;;;;11.96;70.51;99134.50;27252;1217;3026019;-63
2021/11/03 02:55:55;;;;;;;114.60;43.60;;;;;;;12.04;70.16;99134.48;27231;1217;3026665;-67
2021/11/03 02:58:24;;;;;;;123.40;46.50;;;;;;;11.85;70.44;99139.67;27248;1218;3026433;-68
2021/11/03 03:00:53;;;;;;;126.70;47.50;;;;;;;11.56;71.14;99142.22;27185;1217;3058165;-72
2021/11/03 03:03:22;;;;;;;130.30;51.10;;;;;;;11.37;71.99;99142.46;27209;1209;3026122;-70
2021/11/03 03:05:55;;;;;;;148.70;51.80;;;;;;;11.22;72.30;99137.92;27228;1218;3026081;-70
2021/11/03 03:08:25;;;;;;;133.20;49.00;;;;;;;11.05;72.72;99140.13;27213;1218;3058930;-71
2021/11/03 03:10:54;;;;;;;100.30;39.20;;;;;;;10.90;73.72;99146.54;27211;1217;3026457;-68
2021/11/03 03:13:23;;;;;;;107.30;37.40;;;;;;;11.38;72.53;99143.95;27174;1218;3026592;-72
2021/11/03 03:15:53;;;;;;;110.00;40.30;;;;;;;11.89;70.64;99141.11;27191;1217;3057781;-67
2021/11/03 03:18:22;;;;;;;111.50;45.90;;;;;;;11.91;70.42;99139.08;27179;1218;3026293;-66
2021/11/03 03:20:51;;;;;;;121.70;48.60;;;;;;;11.76;70.47;99136.63;27182;1218;3051569;-70
2021/11/03 03:23:20;;;;;;;120.40;51.10;;;;;;;11.60;71.14;99139.35;27211;1219;3026038;-66
2021/11/03 03:25:51;;;;;;;124.60;50.30;;;;;;;11.40;71.75;99135.80;27239;1218;3050323;-71
2021/11/03 03:28:20;;;;;;;120.30;49.30;;;;;;;11.22;72.38;99134.73;27244;1217;3026224;-70
2021/11/03 03:30:49;;;;;;;118.80;48.60;;;;;;;11.07;72.75;99135.41;27215;1218;3026340;-69
2021/11/03 03:33:19;;;;;;;88.20;38.30;;;;;;;11.01;72.87;99131.27;27223;1217;3053974;-77
2021/11/03 03:35:50;;;;;;;93.60;35.80;;;;;;;11.47;72.13;99128.46;27316;1218;3026363;-71
2021/11/03 03:38:19;;;;;;;102.30;42.10;;;;;;;11.99;70.42;99125.56;27215;1218;3026300;-63
2021/11/03 03:40:48;;;;;;;99.30;43.20;;;;;;;12.00;70.14;99127.91;27248;1217;3026025;-68
2021/11/03 03:43:17;;;;;;;99.50;42.20;;;;;;;11.86;70.57;99129.60;27182;1218;3053132;-71
2021/11/03 03:45:46;;;;;;;111.10;43.70;;;;;;;11.64;71.11;99129.90;27195;1218;3026549;-73
2021/11/03 03:48:15;;;;;;;104.70;44.20;;;;;;;11.43;71.89;99130.29;27221;1217;3051274;-70
2021/11/03 03:50:45;;;;;;;110.80;46.10;;;;;;;11.30;72.17;99130.16;27194;1218;3027589;-72
2021/11/03 03:53:14;;;;;;;87.00;33.10;;;;;;;11.17;73.00;99127.05;27245;1218;3048507;-68
2021/11/03 03:55:43;;;;;;;75.10;31.50;;;;;;;11.64;72.24;99126.90;27174;1217;3026287;-70
2021/11/03 03:58:12;;;;;;;83.50;33.40;;;;;;;12.12;70.66;99120.94;27236;1217;3026677;-73
2021/11/03 04:00:41;;;;;;;75.40;33.40;;;;;;;12.14;70.54;99116.59;27220;1217;3047669;-68
2021/11/03 04:03:11;;;;;;;78.30;33.30;;;;;;;11.97;70.98;99116.52;27226;1217;3027283;-75
2021/11/03 04:05:44;;;;;;;88.40;35.90;;;;;;;11.79;71.34;99118.50;27206;1217;3068711;-70
2021/11/03 04:08:14;;;;;;;81.80;35.70;;;;;;;11.57;72.27;99120.91;27190;1210;3026497;-68
2021/11/03 04:10:43;;;;;;;87.70;34.70;;;;;;;11.36;73.27;99119.76;27210;1217;3026237;-67
2021/11/03 04:13:14;;;;;;;63.70;26.80;;;;;;;11.25;73.69;99113.69;27213;1217;3026606;-67
2021/11/03 04:15:45;;;;;;;58.60;24.20;;;;;;;11.74;72.73;99109.19;27222;1218;3026538;-70
2021/11/03 04:18:15;;;;;;;75.00;29.90;;;;;;;12.21;71.30;99107.27;27184;1217;3026328;-67
2021/11/03 04:20:45;;;;;;;68.20;29.10;;;;;;;12.22;70.63;99110.35;27189;1218;3027062;-71
2021/11/03 04:23:14;;;;;;;67.50;29.40;;;;;;;12.05;71.45;99119.48;27266;1218;3026683;-66
2021/11/03 04:25:44;;;;;;;81.50;33.40;;;;;;;11.79;71.99;99128.11;27184;1217;3049081;-71
2021/11/03 04:28:14;;;;;;;82.80;34.20;;;;;;;11.51;73.09;99128.53;27217;1218;3027752;-68
2021/11/03 04:30:43;;;;;;;84.20;36.80;;;;;;;11.31;74.03;99134.86;27212;1218;3027107;-73
2021/11/03 04:33:13;;;;;;;67.40;27.60;;;;;;;11.16;74.92;99127.79;27266;1219;3026151;-73
2021/11/03 04:35:43;;;;;;;59.70;26.00;;;;;;;11.59;73.55;99125.15;27212;1218;3026760;-66
2021/11/03 04:38:12;;;;;;;71.80;29.00;;;;;;;12.08;72.63;99128.59;27207;1217;3026096;-68
2021/11/03 04:40:42;;;;;;;67.80;30.40;;;;;;;12.03;72.12;99125.78;27200;1217;3026466;-71
2021/11/03 04:43:11;;;;;;;70.30;29.90;;;;;;;11.82;72.65;99132.52;27202;1218;3027708;-72
2021/11/03 04:45:41;;;;;;;71.10;31.30;;;;;;;11.59;73.53;99133.95;27266;1217;3026444;-74
2021/11/03 04:48:10;;;;;;;57.30;26.40;;;;;;;11.36;74.25;99129.59;27280;1217;3052377;-71
2021/11/03 04:50:39;;;;;;;55.80;25.10;;;;;;;11.20;75.14;99128.89;27209;1218;3026595;-72
2021/11/03 04:53:08;;;;;;;44.30;19.40;;;;;;;11.03;75.95;99130.59;27237;1218;3051179;-71
2021/11/03 04:55:40;;;;;;;43.70;21.10;;;;;;;11.52;74.86;99120.95;27204;1217;3026004;-66
2021/11/03 04:58:09;;;;;;;49.00;24.00;;;;;;;12.04;73.31;99125.21;27207;1218;3025713;-65
2021/11/03 05:00:39;;;;;;;50.70;24.20;;;;;;;11.99;72.92;99124.66;27208;1217;3027244;-71
2021/11/03 05:03:09;;;;;;;53.20;26.30;;;;;;;11.75;73.41;99127.77;27221;1208;3054658;-74
2021/11/03 05:05:38;;;;;;;63.70;32.40;;;;;;;11.55;74.20;99128.07;27248;1217;3028096;-76
2021/11/03 05:08:09;;;;;;;65.60;30.50;;;;;;;11.34;74.87;99130.41;27231;1217;3054972;-73
2021/11/03 05:10:38;;;;;;;42.80;21.10;;;;;;;11.22;75.61;99138.79;27205;1218;3026439;-67
2021/11/03 05:13:08;;;;;;;36.20;17.90;;;;;;;11.66;74.71;99143.98;27175;1218;3026823;-78
2021/11/03 05:15:37;;;;;;;45.20;23.10;;;;;;;12.15;73.35;99146.87;27208;1217;3026101;-73
2021/11/03 05:18:07;;;;;;;51.40;25.80;;;;;;;12.18;72.82;99149.48;27193;1218;3026476;-73
2021/11/03 05:20:38;;;;;;;51.20;25.50;;;;;;;11.97;73.23;99152.69;27285;1217;3058295;-70
2021/11/03 05:23:08;;;;;;;47.30;25.10;;;;;;;11.77;73.90;99152.88;27216;1208;3028393;-68
2021/11/03 05:25:36;;;;;;;55.80;27.70;;;;;;;11.57;74.46;99153.02;27239;1218;3025893;-68
2021/11/03 05:28:05;;;;;;;36.00;17.00;;;;;;;11.35;75.74;99151.41;27233;1218;3057522;-68
2021/11/03 05:30:36;;;;;;;36.80;16.30;;;;;;;11.73;74.99;99152.27;27224;1217;3026497;-70
2021/11/03 05:33:05;;;;;;;36.60;19.10;;;;;;;12.23;73.08;99153.54;27233;1218;3053733;-68
2021/11/03 05:35:34;;;;;;;43.20;20.00;;;;;;;12.25;73.16;99159.98;27215;1218;3026047;-73
2021/11/03 05:38:03;;;;;;;41.10;20.40;;;;;;;12.06;73.05;99165.94;27215;1218;3054101;-71
2021/11/03 05:40:32;;;;;;;43.60;20.50;;;;;;;11.84;74.04;99175.50;27193;1218;3026032;-73
2021/11/03 05:43:01;;;;;;;37.90;19.40;;;;;;;11.56;74.93;99178.38;27217;1218;3050192;-75
2021/11/03 05:45:30;;;;;;;31.10;14.70;;;;;;;11.42;75.48;99180.92;27251;1217;3028590;-74
2021/11/03 05:47:59;;;;;;;26.80;13.40;;;;;;;11.82;74.68;99176.03;27242;1217;3068176;-66
2021/11/03 05:50:30;;;;;;;34.10;16.20;;;;;;;12.27;73.09;99178.86;27220;1218;3026043;-64
2021/11/03 05:53:00;;;;;;;35.70;16.50;;;;;;;12.27;72.90;99179.90;27260;1218;3052549;-74
2021/11/03 05:55:30;;;;;;;33.80;15.80;;;;;;;12.22;73.11;99179.91;27255;1218;3026448;-69
2021/11/03 05:57:59;;;;;;;36.90;18.20;;;;;;;12.02;73.56;99183.59;27242;1218;3051572;-68
2021/11/03 06:00:34;;;;;;;38.90;17.40;;;;;;;11.86;73.82;99179.08;27278;1217;3026260;-68
2021/11/03 06:03:03;;;;;;;29.10;14.10;;;;;;;11.71;74.64;99181.02;27205;1217;3050461;-68
2021/11/03 06:05:34;;;;;;;33.80;15.40;;;;;;;12.14;73.84;99184.45;27267;1218;3026148;-71
2021/11/03 06:08:19;;;;;;;34.40;20.00;;;;;;;12.54;72.27;99175.30;27201;1218;3053392;-69
2021/11/03 06:11:05;;;;;;;36.10;17.60;;;;;;;12.52;72.33;99177.56;27232;1219;3071121;-65
2021/11/03 06:13:41;;;;;;;37.20;17.20;;;;;;;12.40;72.32;99176.52;27211;1218;3050907;-68
2021/11/03 06:16:10;;;;;;;33.80;17.90;;;;;;;12.21;73.27;99180.88;27261;1217;3027205;-70
2021/11/03 06:18:43;;;;;;;37.90;19.70;;;;;;;11.95;74.21;99188.64;27209;1218;3026457;-71
2021/11/03 06:21:12;;;;;;;29.00;15.30;;;;;;;11.75;75.04;99183.34;27206;1218;3026097;-71
2021/11/03 06:23:41;;;;;;;28.60;13.80;;;;;;;12.21;74.33;99183.29;27241;1218;3051045;-71
2021/11/03 06:26:12;;;;;;;44.60;20.50;;;;;;;12.74;72.56;99178.95;27255;1218;3028993;-73
2021/11/03 06:28:41;;;;;;;42.60;21.10;;;;;;;12.74;71.86;99180.17;27284;1217;3048263;-71
2021/11/03 06:31:11;;;;;;;40.60;19.90;;;;;;;12.52;72.58;99178.98;27185;1218;3026086;-70
2021/11/03 06:33:40;;;;;;;34.80;18.80;;;;;;;12.27;73.36;99178.45;27240;1212;3025886;-66
2021/11/03 06:36:09;;;;;;;39.80;21.20;;;;;;;12.08;73.73;99179.14;27213;1218;3026163;-71
2021/11/03 06:38:38;;;;;;;30.10;16.50;;;;;;;11.88;74.79;99179.63;27220;1217;3053385;-64
2021/11/03 06:41:08;;;;;;;30.50;14.80;;;;;;;12.23;74.28;99178.76;27258;1218;3026399;-63
2021/11/03 06:43:41;;;;;;;32.40;17.70;;;;;;;12.67;72.77;99181.39;27241;1217;3048327;-67
2021/11/03 06:46:10;;;;;;;36.60;18.50;;;;;;;12.70;72.58;99177.45;27235;1218;3026098;-66
2021/11/03 06:48:39;;;;;;;41.20;20.00;;;;;;;12.52;73.11;99183.16;27228;1217;3070494;-72
2021/11/03 06:51:08;;;;;;;36.20;19.50;;;;;;;12.33;74.00;99185.63;27243;1218;3026239;-67
2021/11/03 06:53:37;;;;;;;39.70;19.60;;;;;;;12.15;74.83;99187.94;27261;1217;3027996;-65
2021/11/03 06:56:06;;;;;;;32.90;14.40;;;;;;;11.98;75.25;99184.10;27211;1217;3068077;-73
2021/11/03 06:58:37;;;;;;;27.40;13.40;;;;;;;12.46;74.40;99179.94;27208;1218;3025594;-73
2021/11/03 07:01:08;;;;;;;30.20;15.70;;;;;;;12.92;72.58;99177.27;27229;1218;3026742;-78
2021/11/03 07:03:38;;;;;;;34.40;17.20;;;;;;;12.90;72.63;99180.58;27226;1218;3026149;-72
2021/11/03 07:06:08;;;;;;;33.20;15.70;;;;;;;12.75;73.00;99190.48;27243;1218;3028858;-65
2021/11/03 07:08:38;;;;;;;30.90;17.20;;;;;;;12.56;73.78;99191.13;27245;1218;3027240;-65
2021/11/03 07:11:07;;;;;;;32.90;16.40;;;;;;;12.38;74.25;99192.80;27296;1209;3026004;-73
2021/11/03 07:13:37;;;;;;;24.70;12.70;;;;;;;12.21;75.14;99196.81;27265;1217;3055517;-66
2021/11/03 07:16:06;;;;;;;26.90;12.30;;;;;;;12.59;74.22;99196.58;27235;1218;3026250;-70
2021/11/03 07:18:36;;;;;;;27.20;14.40;;;;;;;13.03;72.76;99199.96;27206;1218;3026283;-70
2021/11/03 07:21:05;;;;;;;31.20;15.50;;;;;;;13.11;72.32;99201.17;27286;1209;3025976;-70
2021/11/03 07:23:34;;;;;;;33.00;15.50;;;;;;;12.90;72.74;99200.23;27262;1209;3050906;-72
2021/11/03 07:26:03;;;;;;;29.30;14.80;;;;;;;12.68;73.74;99201.32;27213;1218;3025736;-73
2021/11/03 07:28:32;;;;;;;31.10;15.70;;;;;;;12.49;74.26;99201.14;27236;1218;3028241;-66
2021/11/03 07:31:01;;;;;;;24.20;12.00;;;;;;;12.24;75.82;99208.59;27263;1218;3048185;-66
2021/11/03 07:33:30;;;;;;;20.90;11.60;;;;;;;12.54;75.12;99204.47;27274;1218;3027914;-69
2021/11/03 07:35:59;;;;;;;26.70;14.40;;;;;;;12.84;73.60;99203.66;27221;1218;3057505;-70
2021/11/03 07:38:28;;;;;;;26.70;14.50;;;;;;;12.85;73.63;99198.00;27193;1217;3027894;-67
2021/11/03 07:40:57;;;;;;;31.30;15.60;;;;;;;12.58;74.62;99208.55;27279;1218;3052001;-67
2021/11/03 07:43:27;;;;;;;30.50;15.20;;;;;;;12.39;75.41;99212.73;27239;1218;3026095;-70
2021/11/03 07:45:58;;;;;;;31.90;15.80;;;;;;;12.19;75.93;99221.73;27271;1219;3051232;-71
2021/11/03 07:48:27;;;;;;;21.90;11.50;;;;;;;11.85;77.62;99224.77;27294;1217;3025896;-65
2021/11/03 07:51:02;;;;;;;21.40;11.40;;;;;;;12.28;76.71;99219.64;27264;1217;3048265;-72
2021/11/03 07:53:31;;;;;;;27.80;14.80;;;;;;;12.68;75.15;99221.00;27293;1218;3051606;-70
2021/11/03 07:56:04;;;;;;;30.60;16.20;;;;;;;12.67;75.19;99217.09;27180;1222;3026275;-70
2021/11/03 07:58:35;;;;;;;33.70;17.10;;;;;;;12.47;75.87;99221.70;27243;1218;3029150;-73
2021/11/03 08:01:04;;;;;;;35.20;17.50;;;;;;;12.16;76.88;99226.69;27316;1218;3026705;-71
2021/11/03 08:03:35;;;;;;;31.10;14.30;;;;;;;11.93;77.86;99228.98;27224;1218;3026786;-68
2021/11/03 08:06:05;;;;;;;27.80;12.30;;;;;;;12.45;76.49;99229.55;27304;1218;3056540;-73
2021/11/03 08:08:37;;;;;;;29.80;15.20;;;;;;;12.61;75.31;99230.16;27253;1212;3025925;-71
2021/11/03 08:11:07;;;;;;;30.90;16.70;;;;;;;12.51;75.88;99233.66;27265;1218;3053108;-76
2021/11/03 08:13:36;;;;;;;31.10;15.50;;;;;;;12.42;75.88;99240.10;27281;1218;3026816;-73
2021/11/03 08:16:08;;;;;;;34.10;17.40;;;;;;;12.19;76.92;99240.33;27218;1218;3049007;-68
2021/11/03 08:18:40;;;;;;;25.80;13.50;;;;;;;11.94;78.41;99244.02;27272;1218;3026446;-69
2021/11/03 08:21:10;;;;;;;26.70;14.20;;;;;;;12.51;76.95;99239.09;27237;1218;3026402;-65
2021/11/03 08:23:40;;;;;;;25.80;14.40;;;;;;;12.74;75.86;99242.39;27229;1218;3026343;-67
2021/11/03 08:26:10;;;;;;;31.50;16.40;;;;;;;12.77;75.60;99241.63;27205;1218;3026257;-70
2021/11/03 08:28:39;;;;;;;31.10;16.10;;;;;;;12.62;76.08;99249.55;27309;1217;3026553;-76
2021/11/03 08:31:08;;;;;;;33.40;16.00;;;;;;;12.37;77.21;99253.34;27161;1219;3027678;-66
2021/11/03 08:33:42;;;;;;;24.40;12.20;;;;;;;12.21;77.75;99249.86;27259;1218;3047591;-72
2021/11/03 08:36:11;;;;;;;24.60;12.40;;;;;;;12.69;76.73;99250.30;27270;1219;3028017;-73
2021/11/03 08:38:40;;;;;;;31.40;14.70;;;;;;;13.13;75.21;99247.79;27229;1219;3026164;-68
2021/11/03 08:41:09;;;;;;;30.00;16.50;;;;;;;13.17;74.53;99249.05;27250;1217;3025887;-64
2021/11/03 08:43:40;;;;;;;32.40;16.70;;;;;;;12.95;75.19;99252.10;27253;1218;3053505;-65
2021/11/03 08:46:09;;;;;;;33.90;18.10;;;;;;;12.77;76.03;99253.23;27207;1218;3027021;-70
2021/11/03 08:48:38;;;;;;;31.50;17.10;;;;;;;12.57;76.66;99255.73;27222;1218;3026503;-73
2021/11/03 08:51:07;;;;;;;26.30;12.00;;;;;;;12.42;77.20;99255.00;27265;1218;3051262;-68
2021/11/03 08:53:36;;;;;;;23.30;12.50;;;;;;;12.86;76.46;99251.32;27205;1218;3026252;-64
2021/11/03 08:56:05;;;;;;;31.50;15.90;;;;;;;13.23;75.13;99247.05;27228;1219;3048303;-71
2021/11/03 08:58:35;;;;;;;28.80;15.80;;;;;;;13.33;74.47;99243.69;27248;1218;3027386;-71
2021/11/03 09:01:04;;;;;;;26.40;14.90;;;;;;;13.14;75.15;99243.33;27200;1218;3026206;-70
2021/11/03 09:03:35;;;;;;;42.00;19.60;;;;;;;12.99;75.52;99243.16;27227;1219;3047470;-68
2021/11/03 09:06:04;;;;;;;34.40;18.40;;;;;;;12.81;76.22;99243.09;27261;1218;3026316;-67
2021/11/03 09:08:33;;;;;;;21.90;13.30;;;;;;;12.69;76.86;99247.84;27212;1217;3026167;-68
2021/11/03 09:11:03;;;;;;;43.60;15.80;;;;;;;13.11;75.97;99241.98;27206;1219;3048305;-72
2021/11/03 09:13:32;;;;;;;32.10;17.00;;;;;;;13.56;74.47;99241.95;27246;1218;3026441;-69
2021/11/03 09:16:02;;;;;;;35.80;18.10;;;;;;;13.57;74.28;99240.96;27192;1219;3025980;-71
2021/11/03 09:18:33;;;;;;;36.90;18.00;;;;;;;13.38;74.96;99239.63;27213;1218;3026476;-72
2021/11/03 09:21:04;;;;;;;35.00;18.10;;;;;;;13.11;75.54;99244.02;27236;1218;3028249;-66
2021/11/03 09:23:33;;;;;;;36.40;18.00;;;;;;;12.91;76.43;99242.54;27243;1217;3027435;-73
2021/11/03 09:26:02;;;;;;;23.00;12.50;;;;;;;12.83;76.44;99242.75;27245;1219;3026476;-68
2021/11/03 09:28:32;;;;;;;27.20;13.50;;;;;;;13.18;76.34;99239.13;27214;1219;3051493;-68
2021/11/03 09:31:03;;;;;;;33.20;17.00;;;;;;;13.68;74.58;99235.20;27267;1219;3028079;-73
2021/11/03 09:33:34;;;;;;;31.00;16.10;;;;;;;13.70;74.35;99232.63;27196;1218;3025735;-66
2021/11/03 09:36:08;;;;;;;34.70;17.00;;;;;;;13.51;74.54;99233.85;27253;1218;3026701;-76
2021/11/03 09:38:39;;;;;;;37.00;19.00;;;;;;;13.30;75.47;99234.87;27190;1219;3048682;-73
2021/11/03 09:41:16;;;;;;;34.80;18.50;;;;;;;13.03;76.27;99241.31;27215;1219;3026231;-67
2021/11/03 09:43:52;;;;;;;25.80;13.30;;;;;;;12.93;76.82;99242.39;27152;1219;3068103;-66
2021/11/03 09:46:35;;;;;;;27.60;13.30;;;;;;;13.46;75.70;99238.77;27254;1219;3048961;-65
2021/11/03 09:49:25;;;;;;;31.60;16.10;;;;;;;13.92;73.73;99231.61;27208;1217;3051776;-68
2021/11/03 09:52:11;;;;;;;32.80;16.70;;;;;;;13.88;73.64;99233.11;27198;1219;3052523;-68
2021/11/03 09:54:41;;;;;;;;;;;;;;;13.64;74.68;99230.46;27238;1218;3058660;-69
2021/11/03 09:57:25;;;;;;;41.10;18.10;;;;;;;13.34;75.72;99232.64;27187;1219;3028607;-73
2021/11/03 09:59:58;;;;;;;38.50;18.70;;;;;;;13.18;76.14;99231.74;27198;1218;3053101;-71
2021/11/03 10:02:31;;;;;;;27.80;13.50;;;;;;;13.06;76.67;99234.92;27167;1218;3051378;-73
2021/11/03 10:05:20;;;;;;;31.30;15.20;;;;;;;13.54;75.74;99232.08;27237;1218;3026339;-76
2021/11/03 10:07:59;;;;;;;34.30;17.60;;;;;;;13.99;74.07;99229.10;27201;1218;3048252;-70
2021/11/03 10:10:52;;;;;;;36.70;18.50;;;;;;;13.90;74.22;99235.13;27212;1219;3051615;-70
2021/11/03 10:13:25;;;;;;;33.30;19.10;;;;;;;13.56;75.10;99235.61;27295;1218;3052306;-66
2021/11/03 10:15:57;;;;;;;32.00;18.40;;;;;;;13.43;75.98;99236.70;27280;1218;3026297;-68
2021/11/03 10:18:28;;;;;;;24.10;12.80;;;;;;;13.30;76.40;99237.00;27187;1217;3026027;-71
2021/11/03 10:20:59;;;;;;;28.70;14.60;;;;;;;13.70;75.76;99236.47;27202;1219;3055208;-76
2021/11/03 10:23:31;;;;;;;29.40;16.60;;;;;;;14.09;74.17;99234.67;27206;1219;3028393;-67
2021/11/03 10:26:05;;;;;;;33.10;17.80;;;;;;;14.08;73.85;99235.86;27185;1218;3049898;-71
2021/11/03 10:28:47;;;;;;;30.90;17.30;;;;;;;13.82;74.66;99235.90;27268;1218;3056204;-69
2021/11/03 10:31:30;;;;;;;34.80;18.30;;;;;;;13.60;75.60;99230.42;27254;1219;3053344;-67
2021/11/03 10:34:31;;;;;;;39.20;19.90;;;;;;;13.40;76.50;99232.02;27187;1218;3070530;-72
2021/11/03 10:37:15;;;;;;;26.00;14.00;;;;;;;13.31;77.27;99227.73;27216;1219;3048518;-74
2021/11/03 10:39:51;;;;;;;;;;;;;;;13.95;75.49;99226.27;27248;1218;3055578;-71
2021/11/03 10:42:28;;;;;;;30.10;16.10;;;;;;;14.16;74.67;99221.95;27214;1219;3052386;-72
2021/11/03 10:45:15;;;;;;;30.90;16.40;;;;;;;14.17;74.31;99223.67;27251;1218;3026530;-71
2021/11/03 10:47:46;;;;;;;32.70;16.30;;;;;;;13.90;75.28;99226.45;27205;1218;3050026;-70
2021/11/03 10:50:27;;;;;;;33.90;16.90;;;;;;;13.70;76.22;99228.89;27306;1217;3026429;-69
2021/11/03 10:52:59;;;;;;;22.70;13.70;;;;;;;13.52;77.07;99229.58;27192;1219;3051776;-71
2021/11/03 10:56:02;;;;;;;26.20;12.80;;;;;;;13.93;76.10;99228.52;27241;1219;3026036;-72
2021/11/03 10:58:38;;;;;;;30.50;16.40;;;;;;;14.34;74.66;99224.60;27139;1221;3051635;-73
2021/11/03 11:01:24;;;;;;;23.20;14.20;;;;;;;14.14;75.11;99232.50;27249;1218;3051873;-62
2021/11/03 11:03:58;;;;;;;27.00;15.30;;;;;;;13.84;76.36;99237.35;27248;1219;3052504;-72
2021/11/03 11:06:35;;;;;;;21.40;12.90;;;;;;;13.63;77.38;99235.77;27298;1219;3059024;-66
2021/11/03 11:09:10;;;;;;;18.30;9.50;;;;;;;13.43;78.45;99234.65;27217;1218;3049509;-70
2021/11/03 11:11:42;;;;;;;23.60;10.50;;;;;;;13.78;77.84;99228.80;27186;1219;3055255;-71
2021/11/03 11:14:19;;;;;;;23.50;10.10;;;;;;;14.11;76.50;99226.44;27229;1218;3027596;-67
2021/11/03 11:16:56;;;;;;;19.70;11.70;;;;;;;13.95;76.94;99226.95;27204;1217;3069799;-67
2021/11/03 11:19:49;;;;;;;18.50;10.30;;;;;;;13.78;77.58;99230.21;27225;1218;3048443;-65
2021/11/03 11:22:49;;;;;;;15.00;9.20;;;;;;;13.63;77.82;99234.00;27217;1217;3052712;-74